Time;durP1;ratioP1;P1;durP2;ratioP2;P2;SDS_P1;SDS_P2;PMS_P1;PMS_P2;Temp;Humidity;BMP_temperature;BMP_pressure;BME280_temperature;BME280_humidity;BME280_pressure;Samples;Min_cycle;Max_cycle;Signal;HPM_P1;HPM_P2
2021/04/08 00:01:39;;;;;;;12.57;2.77;;;;;;;;;;5023554;28;20931;-47
2021/04/08 00:04:04;;;;;;;8.10;2.97;;;;;;;;;;5016651;28;20201;-46
2021/04/08 00:06:29;;;;;;;9.53;3.17;;;;;;;;;;5018515;28;20195;-48
2021/04/08 00:08:55;;;;;;;11.67;3.03;;;;;;;;;;5016486;28;20883;-49
2021/04/08 00:11:20;;;;;;;8.80;2.33;;;;;;;;;;5017969;28;20210;-50
2021/04/08 00:13:45;;;;;;;8.93;2.80;;;;;;;;;;5021788;28;20244;-48
2021/04/08 00:16:10;;;;;;;13.33;2.83;;;;;;;;;;5019602;28;20226;-48
2021/04/08 00:18:36;;;;;;;9.10;2.50;;;;;;;;;;5021818;28;20187;-48
2021/04/08 00:21:02;;;;;;;9.43;2.20;;;;;;;;;;5020920;28;20195;-47
2021/04/08 00:23:27;;;;;;;10.13;3.13;;;;;;;;;;5022714;28;20217;-54
2021/04/08 00:25:52;;;;;;;16.23;3.73;;;;;;;;;;5020960;28;20625;-50
2021/04/08 00:28:18;;;;;;;8.40;2.73;;;;;;;;;;5017400;28;20215;-49
2021/04/08 00:30:43;;;;;;;9.87;2.70;;;;;;;;;;5017459;28;20210;-47
2021/04/08 00:33:13;;;;;;;13.43;3.23;;;;;;;;;;5016797;28;20211;-49
2021/04/08 00:35:39;;;;;;;14.37;2.73;;;;;;;;;;5022244;28;20635;-48
2021/04/08 00:38:04;;;;;;;7.07;2.20;;;;;;;;;;5020585;28;20198;-49
2021/04/08 00:40:30;;;;;;;9.77;2.70;;;;;;;;;;5019130;28;20311;-52
2021/04/08 00:42:56;;;;;;;12.87;2.87;;;;;;;;;;5021794;28;20225;-49
2021/04/08 00:45:21;;;;;;;12.07;3.13;;;;;;;;;;5021571;28;20213;-48
2021/04/08 00:47:46;;;;;;;10.70;2.60;;;;;;;;;;5017672;28;20210;-50
2021/04/08 00:50:13;;;;;;;13.23;2.90;;;;;;;;;;5019884;28;20198;-47
2021/04/08 00:52:41;;;;;;;10.67;3.27;;;;;;;;;;5016410;28;20242;-50
2021/04/08 00:55:07;;;;;;;14.20;2.80;;;;;;;;;;5023413;28;20244;-49
2021/04/08 00:57:33;;;;;;;9.50;2.37;;;;;;;;;;5020751;28;20867;-48
2021/04/08 01:00:01;;;;;;;9.47;2.50;;;;;;;;;;5020005;28;20194;-47
2021/04/08 01:02:26;;;;;;;11.83;3.30;;;;;;;;;;5021601;28;20210;-49
2021/04/08 01:04:51;;;;;;;12.57;3.10;;;;;;;;;;5023386;28;20857;-47
2021/04/08 01:07:16;;;;;;;11.80;2.97;;;;;;;;;;5032327;28;20249;-46
2021/04/08 01:09:42;;;;;;;17.37;2.87;;;;;;;;;;5017456;28;20190;-46
2021/04/08 01:12:07;;;;;;;8.87;3.13;;;;;;;;;;5018714;28;20272;-49
2021/04/08 01:14:33;;;;;;;8.27;3.00;;;;;;;;;;5021727;28;20210;-47
2021/04/08 01:17:02;;;;;;;11.00;3.20;;;;;;;;;;5020725;28;20198;-48
2021/04/08 01:19:46;;;;;;;10.77;2.93;;;;;;;;;;5012278;28;20191;-46
2021/04/08 01:22:24;;;;;;;10.43;3.60;;;;;;;;;;5018695;28;20351;-46
2021/04/08 01:25:09;;;;;;;9.07;3.67;;;;;;;;;;5020315;28;20740;-48
2021/04/08 01:27:54;;;;;;;11.27;3.00;;;;;;;;;;5018155;28;20203;-50
2021/04/08 01:30:41;;;;;;;11.47;3.13;;;;;;;;;;5018499;28;20872;-47
2021/04/08 01:33:16;;;;;;;11.77;3.67;;;;;;;;;;5018472;28;20269;-48
2021/04/08 01:35:44;;;;;;;13.97;3.63;;;;;;;;;;5018652;28;20667;-48
2021/04/08 01:38:32;;;;;;;12.33;3.63;;;;;;;;;;5018269;28;20592;-48
2021/04/08 01:40:59;;;;;;;14.53;4.90;;;;;;;;;;5035389;28;20194;-48
2021/04/08 01:43:28;;;;;;;12.17;4.30;;;;;;;;;;5016180;28;20214;-47
2021/04/08 01:45:58;;;;;;;15.70;4.60;;;;;;;;;;5014458;28;20206;-50
2021/04/08 01:48:23;;;;;;;10.70;4.53;;;;;;;;;;5011212;28;20253;-47
2021/04/08 01:50:57;;;;;;;9.73;4.07;;;;;;;;;;5018653;28;20227;-48
2021/04/08 01:53:23;;;;;;;10.90;3.87;;;;;;;;;;5023941;28;20217;-47
2021/04/08 01:55:55;;;;;;;12.37;4.30;;;;;;;;;;5016529;28;20250;-48
2021/04/08 01:58:21;;;;;;;8.90;3.43;;;;;;;;;;5020122;28;20270;-48
2021/04/08 02:00:47;;;;;;;14.10;4.20;;;;;;;;;;5015817;28;20285;-47
2021/04/08 02:03:16;;;;;;;10.60;3.60;;;;;;;;;;5027964;28;20244;-49
2021/04/08 02:05:42;;;;;;;10.77;4.03;;;;;;;;;;5022169;28;20203;-49
2021/04/08 02:08:10;;;;;;;11.57;4.10;;;;;;;;;;5014522;28;20210;-48
2021/04/08 02:10:37;;;;;;;10.17;3.80;;;;;;;;;;5024927;28;20202;-47
2021/04/08 02:13:05;;;;;;;14.97;4.50;;;;;;;;;;5027582;28;20213;-47
2021/04/08 02:15:31;;;;;;;12.30;4.20;;;;;;;;;;5020380;28;20212;-47
2021/04/08 02:18:01;;;;;;;14.37;4.57;;;;;;;;;;5040353;28;20274;-48
2021/04/08 02:20:30;;;;;;;14.57;4.03;;;;;;;;;;5022375;28;20198;-50
2021/04/08 02:23:01;;;;;;;11.57;3.60;;;;;;;;;;5016884;28;20280;-48
2021/04/08 02:25:31;;;;;;;11.37;3.93;;;;;;;;;;5023566;28;20490;-49
2021/04/08 02:28:06;;;;;;;14.13;4.70;;;;;;;;;;5019289;28;20219;-48
2021/04/08 02:30:31;;;;;;;11.40;3.47;;;;;;;;;;5015470;28;20555;-47
2021/04/08 02:32:57;;;;;;;10.60;3.63;;;;;;;;;;5022108;28;20229;-49
2021/04/08 02:35:22;;;;;;;12.70;3.33;;;;;;;;;;5021920;28;20197;-48
2021/04/08 02:37:50;;;;;;;11.47;3.77;;;;;;;;;;5018326;28;20210;-49
2021/04/08 02:40:18;;;;;;;14.17;3.60;;;;;;;;;;5021128;28;20190;-49
2021/04/08 02:42:44;;;;;;;12.60;3.90;;;;;;;;;;5013678;28;20256;-49
2021/04/08 02:45:10;;;;;;;12.87;3.73;;;;;;;;;;5025581;28;20194;-49
2021/04/08 02:47:36;;;;;;;13.83;3.50;;;;;;;;;;5023654;28;20887;-49
2021/04/08 02:50:03;;;;;;;16.33;5.13;;;;;;;;;;5022162;28;20190;-49
2021/04/08 02:52:36;;;;;;;10.13;3.53;;;;;;;;;;5022081;28;20285;-48
2021/04/08 02:55:11;;;;;;;14.17;3.70;;;;;;;;;;5025550;28;20218;-50
2021/04/08 02:57:42;;;;;;;13.00;3.97;;;;;;;;;;5019192;28;20187;-49
2021/04/08 03:00:09;;;;;;;15.47;3.50;;;;;;;;;;5018718;28;20191;-48
2021/04/08 03:02:39;;;;;;;13.87;3.03;;;;;;;;;;5028507;28;20314;-49
2021/04/08 03:05:08;;;;;;;8.23;2.30;;;;;;;;;;5021859;28;20197;-48
2021/04/08 03:07:39;;;;;;;11.63;3.13;;;;;;;;;;5040145;28;20202;-51
2021/04/08 03:10:07;;;;;;;9.63;3.30;;;;;;;;;;5021489;28;20201;-46
2021/04/08 03:12:34;;;;;;;13.87;2.83;;;;;;;;;;5019954;28;20805;-47
2021/04/08 03:15:01;;;;;;;13.07;3.83;;;;;;;;;;5021612;28;20222;-46
2021/04/08 03:17:30;;;;;;;15.40;3.30;;;;;;;;;;5027429;28;20688;-49
2021/04/08 03:19:57;;;;;;;12.97;3.50;;;;;;;;;;5021917;28;20710;-49
2021/04/08 03:22:23;;;;;;;13.67;3.67;;;;;;;;;;5021176;28;20211;-49
2021/04/08 03:24:54;;;;;;;8.67;3.27;;;;;;;;;;5020237;28;20202;-51
2021/04/08 03:27:20;;;;;;;13.77;3.70;;;;;;;;;;5018809;28;20222;-51
2021/04/08 03:29:47;;;;;;;11.30;3.97;;;;;;;;;;5021409;28;20732;-49
2021/04/08 03:32:17;;;;;;;14.73;3.30;;;;;;;;;;5036521;28;20719;-50
2021/04/08 03:34:43;;;;;;;14.60;3.50;;;;;;;;;;5020813;28;20191;-46
2021/04/08 03:37:08;;;;;;;16.23;4.37;;;;;;;;;;5024693;28;20237;-47
2021/04/08 03:39:34;;;;;;;13.03;4.50;;;;;;;;;;5018032;28;20567;-46
2021/04/08 03:42:00;;;;;;;9.97;3.40;;;;;;;;;;5016170;28;20558;-46
2021/04/08 03:44:28;;;;;;;11.87;4.03;;;;;;;;;;5019127;28;20206;-49
2021/04/08 03:46:56;;;;;;;12.80;3.60;;;;;;;;;;5023343;28;20678;-48
2021/04/08 03:49:22;;;;;;;11.73;4.20;;;;;;;;;;5025395;28;20885;-50
2021/04/08 03:51:48;;;;;;;10.40;3.80;;;;;;;;;;5020377;28;20215;-48
2021/04/08 03:54:15;;;;;;;11.30;4.03;;;;;;;;;;5018864;28;20248;-47
2021/04/08 03:56:44;;;;;;;18.20;4.13;;;;;;;;;;5014321;28;20575;-48
2021/04/08 03:59:10;;;;;;;13.50;4.17;;;;;;;;;;5018874;28;20183;-47
2021/04/08 04:01:37;;;;;;;14.57;4.73;;;;;;;;;;5017297;28;20241;-49
2021/04/08 04:04:04;;;;;;;13.00;4.20;;;;;;;;;;5018556;28;20641;-48
2021/04/08 04:06:31;;;;;;;10.33;4.40;;;;;;;;;;5021383;28;20195;-48
2021/04/08 04:08:57;;;;;;;14.27;4.70;;;;;;;;;;5021677;28;20206;-48
2021/04/08 04:11:22;;;;;;;18.23;5.10;;;;;;;;;;5020846;28;20264;-49
2021/04/08 04:13:49;;;;;;;11.73;4.90;;;;;;;;;;5013675;28;20202;-47
2021/04/08 04:16:16;;;;;;;10.10;5.00;;;;;;;;;;5021974;28;20214;-46
2021/04/08 04:18:41;;;;;;;9.07;4.50;;;;;;;;;;5022355;28;20202;-50
2021/04/08 04:21:09;;;;;;;14.47;6.00;;;;;;;;;;5022369;28;20232;-49
2021/04/08 04:23:34;;;;;;;11.47;3.87;;;;;;;;;;5021276;28;20199;-49
2021/04/08 04:26:02;;;;;;;15.63;4.13;;;;;;;;;;5020711;28;20198;-49
2021/04/08 04:28:28;;;;;;;14.10;4.10;;;;;;;;;;5037543;28;20207;-48
2021/04/08 04:30:55;;;;;;;17.23;4.33;;;;;;;;;;5015719;28;20199;-50
2021/04/08 04:33:20;;;;;;;13.37;3.80;;;;;;;;;;5020501;28;20218;-49
2021/04/08 04:35:45;;;;;;;10.17;3.57;;;;;;;;;;5019731;28;20218;-49
2021/04/08 04:38:11;;;;;;;6.83;3.43;;;;;;;;;;5022532;28;20635;-50
2021/04/08 04:40:36;;;;;;;11.10;3.87;;;;;;;;;;5015592;28;20605;-47
2021/04/08 04:43:01;;;;;;;10.67;3.60;;;;;;;;;;5018853;28;20202;-47
2021/04/08 04:45:27;;;;;;;13.17;3.53;;;;;;;;;;5023162;28;20195;-51
2021/04/08 04:47:52;;;;;;;9.23;3.70;;;;;;;;;;5023631;28;20214;-50
2021/04/08 04:50:17;;;;;;;13.30;3.93;;;;;;;;;;5017105;28;20232;-52
2021/04/08 04:52:43;;;;;;;10.83;3.60;;;;;;;;;;5020888;28;20248;-47
2021/04/08 04:55:09;;;;;;;13.70;4.37;;;;;;;;;;5011958;28;20203;-47
2021/04/08 04:57:34;;;;;;;8.73;3.77;;;;;;;;;;5022761;28;20191;-48
2021/04/08 05:00:00;;;;;;;14.07;3.93;;;;;;;;;;5019284;28;20194;-49
2021/04/08 05:02:25;;;;;;;11.30;4.07;;;;;;;;;;5020271;28;20610;-47
2021/04/08 05:04:50;;;;;;;12.07;3.67;;;;;;;;;;5018075;28;20656;-50
2021/04/08 05:07:16;;;;;;;12.53;3.37;;;;;;;;;;5018746;28;20226;-47
2021/04/08 05:09:41;;;;;;;11.03;2.70;;;;;;;;;;5016926;28;20201;-51
2021/04/08 05:12:07;;;;;;;10.93;2.87;;;;;;;;;;5028778;28;20221;-48
2021/04/08 05:14:33;;;;;;;12.13;3.20;;;;;;;;;;5019656;28;20823;-46
2021/04/08 05:16:59;;;;;;;10.27;3.23;;;;;;;;;;5024175;28;20590;-49
2021/04/08 05:19:25;;;;;;;8.27;2.43;;;;;;;;;;5013837;28;20201;-50
2021/04/08 05:21:51;;;;;;;4.83;2.73;;;;;;;;;;5019424;28;20253;-49
2021/04/08 05:24:17;;;;;;;10.43;2.97;;;;;;;;;;5011580;28;20223;-49
2021/04/08 05:26:42;;;;;;;6.50;2.80;;;;;;;;;;5023754;28;20183;-47
2021/04/08 05:29:07;;;;;;;10.00;3.40;;;;;;;;;;5012201;28;20229;-48
2021/04/08 05:31:33;;;;;;;6.70;3.23;;;;;;;;;;5009427;28;20235;-48
2021/04/08 05:33:58;;;;;;;6.20;3.20;;;;;;;;;;5016615;28;20183;-49
2021/04/08 05:36:24;;;;;;;13.10;4.63;;;;;;;;;;5018483;28;20257;-51
2021/04/08 05:38:49;;;;;;;8.77;4.23;;;;;;;;;;5022663;28;20230;-48
2021/04/08 05:41:14;;;;;;;13.77;4.47;;;;;;;;;;5022363;28;20206;-48
2021/04/08 05:43:40;;;;;;;11.70;4.17;;;;;;;;;;5022851;28;20194;-50
2021/04/08 05:46:09;;;;;;;7.73;3.57;;;;;;;;;;5026746;28;20675;-49
2021/04/08 05:48:34;;;;;;;7.37;2.63;;;;;;;;;;5022043;28;20203;-48
2021/04/08 05:50:59;;;;;;;8.63;2.67;;;;;;;;;;5016596;28;20202;-50
2021/04/08 05:53:25;;;;;;;5.73;1.87;;;;;;;;;;5015259;28;20229;-47
2021/04/08 05:55:50;;;;;;;9.07;2.93;;;;;;;;;;5025969;28;20191;-47
2021/04/08 05:58:15;;;;;;;18.13;2.87;;;;;;;;;;5019910;28;20202;-50
2021/04/08 06:00:40;;;;;;;9.03;3.30;;;;;;;;;;5019565;28;20218;-48
2021/04/08 06:03:06;;;;;;;10.93;3.53;;;;;;;;;;5016122;28;20215;-49
2021/04/08 06:05:31;;;;;;;13.17;3.67;;;;;;;;;;5022340;28;20208;-53
2021/04/08 06:07:56;;;;;;;7.90;3.17;;;;;;;;;;5022893;28;20207;-48
2021/04/08 06:10:21;;;;;;;15.10;4.20;;;;;;;;;;5024752;28;20237;-46
2021/04/08 06:12:49;;;;;;;8.60;3.50;;;;;;;;;;5021199;28;20223;-45
2021/04/08 06:15:14;;;;;;;8.83;3.63;;;;;;;;;;5006817;28;20195;-47
2021/04/08 06:17:40;;;;;;;5.67;3.17;;;;;;;;;;5013620;28;20199;-47
2021/04/08 06:20:06;;;;;;;12.53;4.40;;;;;;;;;;5017540;28;20282;-47
2021/04/08 06:22:31;;;;;;;8.37;4.10;;;;;;;;;;5024388;28;20293;-47
2021/04/08 06:24:57;;;;;;;9.03;3.53;;;;;;;;;;5022167;28;20273;-49
2021/04/08 06:27:22;;;;;;;11.90;3.90;;;;;;;;;;5017783;28;20219;-48
2021/04/08 06:29:47;;;;;;;12.93;4.53;;;;;;;;;;5015755;28;20206;-47
2021/04/08 06:32:13;;;;;;;15.33;5.77;;;;;;;;;;5022953;28;20218;-47
2021/04/08 06:34:38;;;;;;;15.03;4.90;;;;;;;;;;5020091;28;20196;-46
2021/04/08 06:37:03;;;;;;;10.27;4.63;;;;;;;;;;5022968;28;20228;-46
2021/04/08 06:39:29;;;;;;;8.97;4.13;;;;;;;;;;5025158;28;20535;-46
2021/04/08 06:41:55;;;;;;;10.37;4.37;;;;;;;;;;5021479;28;20207;-46
2021/04/08 06:44:23;;;;;;;15.13;5.17;;;;;;;;;;5025920;28;20543;-47
2021/04/08 06:46:53;;;;;;;13.23;4.40;;;;;;;;;;5022024;28;20206;-47
2021/04/08 06:49:28;;;;;;;13.00;4.03;;;;;;;;;;5011136;28;20207;-47
2021/04/08 06:51:58;;;;;;;15.07;4.03;;;;;;;;;;5013075;28;20753;-46
2021/04/08 06:54:24;;;;;;;11.20;3.90;;;;;;;;;;5012646;28;20202;-47
2021/04/08 06:56:50;;;;;;;14.97;4.70;;;;;;;;;;5017975;28;20198;-50
2021/04/08 06:59:16;;;;;;;8.87;3.33;;;;;;;;;;5020258;28;20624;-47
2021/04/08 07:01:43;;;;;;;10.00;4.00;;;;;;;;;;5020474;28;20248;-47
2021/04/08 07:04:10;;;;;;;14.03;3.90;;;;;;;;;;5018106;28;20197;-47
2021/04/08 07:06:36;;;;;;;10.60;3.80;;;;;;;;;;5022442;28;20186;-44
2021/04/08 07:09:02;;;;;;;14.07;3.87;;;;;;;;;;5033973;28;20211;-45
2021/04/08 07:11:29;;;;;;;10.60;3.83;;;;;;;;;;5016163;28;22331;-46
2021/04/08 07:13:55;;;;;;;8.73;3.50;;;;;;;;;;5014711;28;20986;-45
2021/04/08 07:16:20;;;;;;;8.70;3.83;;;;;;;;;;5018926;28;20187;-47
2021/04/08 07:18:47;;;;;;;13.27;4.00;;;;;;;;;;5022841;28;20592;-47
2021/04/08 07:21:12;;;;;;;9.37;3.63;;;;;;;;;;5020386;28;20214;-46
2021/04/08 07:23:37;;;;;;;8.57;3.60;;;;;;;;;;5020371;28;20195;-47
2021/04/08 07:26:11;;;;;;;11.30;3.60;;;;;;;;;;5022739;28;20199;-46
2021/04/08 07:28:41;;;;;;;12.43;4.17;;;;;;;;;;5008901;28;20273;-46
2021/04/08 07:31:26;;;;;;;10.70;4.47;;;;;;;;;;5027500;28;20670;-47
2021/04/08 07:33:55;;;;;;;15.73;4.20;;;;;;;;;;5012013;28;20179;-48
2021/04/08 07:36:36;;;;;;;9.20;3.80;;;;;;;;;;5011419;28;20187;-46
2021/04/08 07:39:04;;;;;;;12.93;4.10;;;;;;;;;;5012388;28;20184;-48
2021/04/08 07:41:34;;;;;;;15.43;3.67;;;;;;;;;;5013880;28;20218;-48
2021/04/08 07:44:05;;;;;;;11.43;3.60;;;;;;;;;;5013010;28;20566;-48
2021/04/08 07:46:33;;;;;;;14.03;5.10;;;;;;;;;;5018179;28;20760;-49
2021/04/08 07:48:58;;;;;;;14.83;4.30;;;;;;;;;;5010405;28;20249;-46
2021/04/08 07:51:34;;;;;;;12.07;3.90;;;;;;;;;;5012136;28;20665;-47
2021/04/08 07:54:11;;;;;;;8.23;3.47;;;;;;;;;;5015201;28;20199;-47
2021/04/08 07:56:36;;;;;;;7.43;2.63;;;;;;;;;;5019112;28;21627;-46
2021/04/08 07:59:34;;;;;;;7.13;2.70;;;;;;;;;;5011109;28;20192;-47
2021/04/08 08:02:03;;;;;;;16.90;5.13;;;;;;;;;;4999114;28;20824;-48
2021/04/08 08:04:29;;;;;;;17.73;5.17;;;;;;;;;;5012337;28;20252;-45
2021/04/08 08:06:56;;;;;;;17.97;4.13;;;;;;;;;;5009398;28;20219;-47
2021/04/08 08:09:26;;;;;;;17.83;5.10;;;;;;;;;;5010506;28;20298;-48
2021/04/08 08:11:53;;;;;;;9.03;2.67;;;;;;;;;;5010714;28;20210;-47
2021/04/08 08:14:35;;;;;;;18.60;6.23;;;;;;;;;;5011249;28;20192;-48
2021/04/08 08:17:12;;;;;;;6.60;2.63;;;;;;;;;;5014511;28;20728;-48
2021/04/08 08:19:42;;;;;;;7.30;3.03;;;;;;;;;;5010414;28;20202;-48
2021/04/08 08:22:08;;;;;;;8.03;2.80;;;;;;;;;;5012221;28;20335;-47
2021/04/08 08:24:34;;;;;;;8.53;2.60;;;;;;;;;;5013777;28;20203;-46
2021/04/08 08:26:59;;;;;;;6.67;2.40;;;;;;;;;;5020693;28;20226;-47
2021/04/08 08:29:30;;;;;;;7.00;2.70;;;;;;;;;;5019674;28;20285;-47
2021/04/08 08:31:56;;;;;;;10.50;2.70;;;;;;;;;;5033305;28;20218;-47
2021/04/08 08:34:37;;;;;;;9.67;2.77;;;;;;;;;;5020485;28;20187;-48
2021/04/08 08:37:11;;;;;;;18.10;3.60;;;;;;;;;;5017318;28;20832;-46
2021/04/08 08:39:40;;;;;;;7.50;2.63;;;;;;;;;;5021444;28;20191;-45
2021/04/08 08:42:09;;;;;;;8.67;2.70;;;;;;;;;;5018405;28;20202;-48
2021/04/08 08:44:36;;;;;;;9.70;2.87;;;;;;;;;;5021455;28;20209;-47
2021/04/08 08:47:08;;;;;;;9.33;3.27;;;;;;;;;;5020055;28;20202;-46
2021/04/08 08:49:45;;;;;;;26.60;5.10;;;;;;;;;;5013119;28;20195;-46
2021/04/08 08:52:16;;;;;;;7.40;2.90;;;;;;;;;;5017471;28;20214;-47
2021/04/08 08:54:41;;;;;;;11.80;3.70;;;;;;;;;;5018074;28;21309;-46
2021/04/08 08:57:07;;;;;;;10.47;2.93;;;;;;;;;;5003595;28;20194;-48
2021/04/08 08:59:33;;;;;;;11.03;3.53;;;;;;;;;;5019258;28;20672;-46
2021/04/08 09:01:59;;;;;;;11.00;2.87;;;;;;;;;;5019875;28;20253;-51
2021/04/08 09:04:25;;;;;;;11.83;3.57;;;;;;;;;;5014519;28;20654;-46
2021/04/08 09:06:52;;;;;;;8.23;2.93;;;;;;;;;;5017378;28;20210;-46
2021/04/08 09:09:20;;;;;;;6.57;2.50;;;;;;;;;;5016708;28;20215;-48
2021/04/08 09:11:46;;;;;;;9.73;2.53;;;;;;;;;;5015999;28;20215;-46
2021/04/08 09:14:13;;;;;;;30.80;5.63;;;;;;;;;;5027097;28;20190;-47
2021/04/08 09:16:49;;;;;;;10.43;3.67;;;;;;;;;;5006163;28;20282;-48
2021/04/08 09:19:30;;;;;;;13.33;3.23;;;;;;;;;;5008602;28;20187;-46
2021/04/08 09:22:05;;;;;;;7.40;2.43;;;;;;;;;;5010487;28;20679;-47
2021/04/08 09:24:44;;;;;;;7.73;2.60;;;;;;;;;;5009166;28;20194;-50
2021/04/08 09:27:11;;;;;;;6.43;2.20;;;;;;;;;;5009270;28;20209;-45
2021/04/08 09:29:37;;;;;;;8.03;2.53;;;;;;;;;;5006960;28;20838;-48
2021/04/08 09:32:34;;;;;;;10.13;2.60;;;;;;;;;;5009930;28;20207;-47
2021/04/08 09:35:05;;;;;;;8.97;2.37;;;;;;;;;;5009623;28;20198;-48
2021/04/08 09:37:46;;;;;;;5.63;1.90;;;;;;;;;;5012776;28;20191;-47
2021/04/08 09:40:45;;;;;;;6.60;1.80;;;;;;;;;;5007783;28;20703;-47
2021/04/08 09:43:11;;;;;;;6.93;2.37;;;;;;;;;;5008745;28;20215;-47
2021/04/08 09:46:05;;;;;;;8.37;2.30;;;;;;;;;;5007122;28;20187;-47
2021/04/08 09:48:46;;;;;;;5.83;1.60;;;;;;;;;;5009296;28;20218;-47
2021/04/08 09:51:26;;;;;;;6.20;1.87;;;;;;;;;;5022224;28;20290;-49
2021/04/08 09:53:54;;;;;;;3.90;1.57;;;;;;;;;;5007216;28;20286;-47
2021/04/08 09:56:56;;;;;;;6.97;1.50;;;;;;;;;;5009747;28;20187;-47
2021/04/08 09:59:27;;;;;;;6.83;1.90;;;;;;;;;;5019785;28;20234;-47
2021/04/08 10:01:52;;;;;;;6.00;1.73;;;;;;;;;;5008025;28;20218;-49
2021/04/08 10:04:23;;;;;;;6.73;1.57;;;;;;;;;;5007594;28;20196;-48
2021/04/08 10:07:00;;;;;;;6.33;1.67;;;;;;;;;;5009929;28;20198;-47
2021/04/08 10:09:25;;;;;;;5.47;1.60;;;;;;;;;;5011355;28;20226;-47
2021/04/08 10:11:50;;;;;;;5.77;2.10;;;;;;;;;;5004890;28;20219;-49
2021/04/08 10:14:18;;;;;;;6.00;1.40;;;;;;;;;;5008624;28;20187;-49
2021/04/08 10:16:44;;;;;;;8.30;1.73;;;;;;;;;;5021477;28;20234;-46
2021/04/08 10:19:09;;;;;;;9.20;1.83;;;;;;;;;;5014000;28;20652;-48
2021/04/08 10:21:34;;;;;;;6.83;2.23;;;;;;;;;;5010636;28;20212;-49
2021/04/08 10:24:00;;;;;;;5.60;1.63;;;;;;;;;;5024462;28;20286;-47
2021/04/08 10:26:32;;;;;;;4.10;1.73;;;;;;;;;;5021120;28;20200;-47
2021/04/08 10:29:00;;;;;;;7.17;2.00;;;;;;;;;;5014075;28;20258;-48
2021/04/08 10:31:26;;;;;;;6.67;2.23;;;;;;;;;;5019429;28;20226;-46
2021/04/08 10:34:03;;;;;;;5.00;1.57;;;;;;;;;;5023530;28;20693;-47
2021/04/08 10:36:32;;;;;;;6.97;1.43;;;;;;;;;;5024269;28;20194;-48
2021/04/08 10:39:17;;;;;;;5.70;1.57;;;;;;;;;;5020458;28;20202;-47
2021/04/08 10:42:08;;;;;;;5.30;1.20;;;;;;;;;;5023100;28;20209;-46
2021/04/08 10:44:34;;;;;;;2.57;1.23;;;;;;;;;;5015291;28;20218;-47
2021/04/08 10:47:13;;;;;;;4.73;1.30;;;;;;;;;;5018903;28;20596;-48
2021/04/08 10:49:49;;;;;;;5.70;1.17;;;;;;;;;;5025506;28;20246;-47
2021/04/08 10:52:18;;;;;;;3.33;1.37;;;;;;;;;;5015298;28;20222;-46
2021/04/08 10:54:45;;;;;;;12.37;2.03;;;;;;;;;;5017101;28;20209;-47
2021/04/08 10:57:13;;;;;;;3.20;1.20;;;;;;;;;;5022381;28;20199;-48
2021/04/08 10:59:42;;;;;;;7.23;1.53;;;;;;;;;;5022929;28;20194;-48
2021/04/08 11:02:36;;;;;;;3.60;1.60;;;;;;;;;;5022259;28;20275;-48
2021/04/08 11:05:06;;;;;;;2.83;1.20;;;;;;;;;;5014530;28;20214;-49
2021/04/08 11:07:37;;;;;;;4.40;1.40;;;;;;;;;;5024138;28;20213;-46
2021/04/08 11:10:14;;;;;;;5.90;1.27;;;;;;;;;;5017205;28;20265;-47
2021/04/08 11:12:40;;;;;;;4.20;1.57;;;;;;;;;;5023929;28;20229;-48
2021/04/08 11:15:07;;;;;;;4.53;1.50;;;;;;;;;;5024980;28;20195;-47
2021/04/08 11:17:35;;;;;;;3.53;1.53;;;;;;;;;;5018821;28;20269;-47
2021/04/08 11:20:01;;;;;;;6.17;1.33;;;;;;;;;;5022553;28;20313;-48
2021/04/08 11:22:29;;;;;;;3.07;1.20;;;;;;;;;;5019810;28;20257;-49
2021/04/08 11:24:56;;;;;;;3.70;1.30;;;;;;;;;;5021481;28;20246;-49
2021/04/08 11:27:36;;;;;;;5.70;1.50;;;;;;;;;;5023116;28;20871;-48
2021/04/08 11:30:03;;;;;;;5.47;1.60;;;;;;;;;;5020054;28;20198;-46
2021/04/08 11:32:28;;;;;;;3.73;1.40;;;;;;;;;;5013275;28;20327;-48
2021/04/08 11:34:59;;;;;;;1.90;1.30;;;;;;;;;;5021961;28;20813;-47
2021/04/08 11:37:34;;;;;;;2.57;1.20;;;;;;;;;;5023495;28;20199;-48
2021/04/08 11:40:00;;;;;;;1.97;1.30;;;;;;;;;;5016901;28;20253;-48
2021/04/08 11:42:32;;;;;;;3.17;1.40;;;;;;;;;;5020985;28;20198;-49
2021/04/08 11:44:57;;;;;;;3.63;1.20;;;;;;;;;;5014823;28;20211;-49
2021/04/08 11:47:23;;;;;;;5.47;1.63;;;;;;;;;;5023883;28;20218;-47
2021/04/08 11:49:49;;;;;;;4.00;1.20;;;;;;;;;;5019375;28;20729;-48
2021/04/08 11:52:17;;;;;;;5.10;1.40;;;;;;;;;;5018546;28;20638;-46
2021/04/08 11:54:56;;;;;;;10.70;1.63;;;;;;;;;;5018694;28;20214;-48
2021/04/08 11:57:21;;;;;;;3.30;1.17;;;;;;;;;;5017082;28;20179;-48
2021/04/08 11:59:48;;;;;;;2.53;1.40;;;;;;;;;;5020782;28;20205;-46
2021/04/08 12:02:27;;;;;;;4.37;1.40;;;;;;;;;;5013413;28;20246;-46
2021/04/08 12:04:52;;;;;;;3.07;1.30;;;;;;;;;;5015655;28;20220;-46
2021/04/08 12:07:19;;;;;;;4.80;1.90;;;;;;;;;;5021205;28;20666;-47
2021/04/08 12:09:45;;;;;;;4.80;1.50;;;;;;;;;;5016852;28;20215;-46
2021/04/08 12:12:11;;;;;;;2.57;1.20;;;;;;;;;;5014317;28;20213;-47
2021/04/08 12:14:53;;;;;;;2.47;1.13;;;;;;;;;;5022336;28;20257;-48
2021/04/08 12:17:18;;;;;;;3.73;1.57;;;;;;;;;;5019629;28;20198;-48
2021/04/08 12:19:43;;;;;;;2.80;1.33;;;;;;;;;;5022218;28;20195;-44
2021/04/08 12:22:11;;;;;;;2.63;1.30;;;;;;;;;;5021912;28;20584;-46
2021/04/08 12:24:37;;;;;;;3.27;1.27;;;;;;;;;;5018944;28;20585;-45
2021/04/08 12:27:14;;;;;;;4.00;1.23;;;;;;;;;;5021358;28;20682;-47
2021/04/08 12:29:39;;;;;;;6.07;1.63;;;;;;;;;;5024407;28;20338;-48
2021/04/08 12:32:04;;;;;;;4.90;2.17;;;;;;;;;;5019993;28;20873;-46
2021/04/08 12:34:30;;;;;;;6.40;1.40;;;;;;;;;;5020137;28;20910;-49
2021/04/08 12:36:55;;;;;;;2.80;1.60;;;;;;;;;;5021583;28;20214;-48
2021/04/08 12:39:20;;;;;;;6.27;1.83;;;;;;;;;;5018777;28;20195;-45
2021/04/08 12:41:46;;;;;;;3.27;1.30;;;;;;;;;;5021351;28;20675;-46
2021/04/08 12:44:11;;;;;;;7.70;1.63;;;;;;;;;;5018417;28;20194;-47
2021/04/08 12:46:36;;;;;;;4.03;1.53;;;;;;;;;;5012198;28;20254;-47
2021/04/08 12:49:02;;;;;;;3.30;1.40;;;;;;;;;;5014757;28;20711;-50
2021/04/08 12:51:27;;;;;;;4.17;1.43;;;;;;;;;;5012384;28;20207;-47
2021/04/08 12:53:54;;;;;;;4.87;1.60;;;;;;;;;;5014682;28;20636;-48
2021/04/08 12:56:19;;;;;;;3.00;1.47;;;;;;;;;;5020211;28;20191;-47
2021/04/08 12:58:44;;;;;;;2.87;1.50;;;;;;;;;;5018069;28;20232;-48
2021/04/08 13:01:10;;;;;;;3.17;1.70;;;;;;;;;;5018632;28;20229;-49
2021/04/08 13:03:35;;;;;;;4.50;1.60;;;;;;;;;;5012780;28;20281;-46
2021/04/08 13:06:00;;;;;;;3.70;1.40;;;;;;;;;;5011607;28;20191;-46
2021/04/08 13:08:26;;;;;;;2.67;1.10;;;;;;;;;;5018743;28;20223;-49
2021/04/08 13:10:51;;;;;;;2.90;2.07;;;;;;;;;;5010163;28;20218;-47
2021/04/08 13:13:17;;;;;;;2.03;1.20;;;;;;;;;;5012028;28;20268;-47
2021/04/08 13:15:43;;;;;;;3.00;1.40;;;;;;;;;;5021367;28;20283;-46
2021/04/08 13:18:08;;;;;;;3.07;1.30;;;;;;;;;;5021296;28;20298;-48
2021/04/08 13:20:35;;;;;;;2.30;1.33;;;;;;;;;;5021020;28;20198;-49
2021/04/08 13:23:02;;;;;;;2.83;1.30;;;;;;;;;;5014092;28;20301;-49
2021/04/08 13:25:28;;;;;;;5.53;1.97;;;;;;;;;;5016822;28;20199;-47
2021/04/08 13:27:54;;;;;;;2.77;1.33;;;;;;;;;;5022340;28;20202;-50
2021/04/08 13:30:22;;;;;;;4.27;1.87;;;;;;;;;;5012804;28;20203;-47
2021/04/08 13:32:48;;;;;;;2.23;1.40;;;;;;;;;;5021831;28;20213;-46
2021/04/08 13:35:14;;;;;;;4.30;1.50;;;;;;;;;;5018696;28;20190;-48
2021/04/08 13:37:39;;;;;;;5.77;1.97;;;;;;;;;;5021276;28;20191;-47
2021/04/08 13:40:08;;;;;;;3.43;1.60;;;;;;;;;;5019060;28;20256;-48
2021/04/08 13:42:35;;;;;;;2.47;1.50;;;;;;;;;;5019851;28;20237;-48
2021/04/08 13:45:00;;;;;;;5.33;1.50;;;;;;;;;;5021394;28;20813;-47
2021/04/08 13:47:26;;;;;;;4.40;1.50;;;;;;;;;;5020069;28;20182;-48
2021/04/08 13:49:51;;;;;;;3.97;1.67;;;;;;;;;;5019699;28;20576;-48
2021/04/08 13:52:16;;;;;;;4.70;1.57;;;;;;;;;;5018501;28;20211;-47
2021/04/08 13:54:42;;;;;;;3.60;1.57;;;;;;;;;;5021175;28;20296;-47
2021/04/08 13:57:07;;;;;;;3.07;1.53;;;;;;;;;;5025408;28;20193;-47
2021/04/08 13:59:32;;;;;;;3.40;1.57;;;;;;;;;;5026067;28;20569;-46
2021/04/08 14:01:58;;;;;;;4.83;1.80;;;;;;;;;;5020347;28;20234;-48
2021/04/08 14:04:25;;;;;;;4.17;1.87;;;;;;;;;;5014019;28;20376;-47
2021/04/08 14:06:50;;;;;;;3.13;1.60;;;;;;;;;;5026793;28;20178;-47
2021/04/08 14:09:15;;;;;;;3.83;1.60;;;;;;;;;;5015825;28;20257;-47
2021/04/08 14:11:42;;;;;;;2.77;1.30;;;;;;;;;;5021420;28;20886;-47
2021/04/08 14:14:07;;;;;;;6.23;1.90;;;;;;;;;;5019341;28;20199;-46
2021/04/08 14:16:33;;;;;;;3.60;1.50;;;;;;;;;;5021126;28;20879;-48
2021/04/08 14:18:58;;;;;;;2.53;1.47;;;;;;;;;;5029077;28;20770;-48
2021/04/08 14:21:24;;;;;;;3.30;1.50;;;;;;;;;;5015724;28;20215;-47
2021/04/08 14:23:51;;;;;;;5.03;1.63;;;;;;;;;;5024345;28;20667;-47
2021/04/08 14:26:20;;;;;;;6.93;1.60;;;;;;;;;;5027599;28;20616;-46
2021/04/08 14:28:46;;;;;;;2.70;1.20;;;;;;;;;;5022981;28;20829;-46
2021/04/08 14:31:12;;;;;;;2.87;1.77;;;;;;;;;;5021765;28;20214;-48
2021/04/08 14:33:37;;;;;;;3.77;1.57;;;;;;;;;;5012655;28;20191;-46
2021/04/08 14:36:03;;;;;;;3.73;1.50;;;;;;;;;;5012773;28;20193;-53
2021/04/08 14:38:28;;;;;;;3.73;1.73;;;;;;;;;;5019866;28;20656;-48
2021/04/08 14:40:54;;;;;;;3.37;1.60;;;;;;;;;;5022324;28;20221;-47
2021/04/08 14:43:19;;;;;;;4.23;2.03;;;;;;;;;;5024589;28;20269;-48
2021/04/08 14:45:44;;;;;;;4.03;1.93;;;;;;;;;;5025378;28;20807;-55